Time;durP1;ratioP1;P1;durP2;ratioP2;P2;SDS_P1;SDS_P2;PMS_P1;PMS_P2;Temp;Humidity;BMP_temperature;BMP_pressure;BME280_temperature;BME280_humidity;BME280_pressure;Samples;Min_cycle;Max_cycle;Signal;HPM_P1;HPM_P2
2022/08/04 00:00:27;;;;;;;;;;;;;;;28.40;48.48;101020.81;5096190;28;19920;-76
2022/08/04 00:03:18;;;;;;;;;;;;;;;28.40;48.50;101021.69;5097632;28;19920;-76
2022/08/04 00:05:45;;;;;;;;;;;;;;;28.40;48.56;101016.25;5097354;28;19927;-76
2022/08/04 00:08:21;;;;;;;;;;;;;;;28.40;48.35;101029.88;5096929;28;20422;-76
2022/08/04 00:10:52;;;;;;;;;;;;;;;28.40;48.59;101027.16;5095827;28;20407;-77
2022/08/04 00:13:23;;;;;;;;;;;;;;;28.41;48.41;101025.25;5096817;28;19926;-76
2022/08/04 00:15:56;;;;;;;;;;;;;;;28.41;48.53;101026.09;5096706;28;19927;-76
2022/08/04 00:18:28;;;;;;;;;;;;;;;28.41;48.32;101031.56;5097073;28;19927;-76
2022/08/04 00:21:05;;;;;;;;;;;;;;;28.41;48.38;101028.84;5097294;28;19935;-76
2022/08/04 00:23:34;;;;;;;;;;;;;;;28.41;48.49;101023.38;5097247;28;19931;-76
2022/08/04 00:26:22;;;;;;;;;;;;;;;28.41;48.32;101020.66;5095551;28;19927;-76
2022/08/04 00:28:52;;;;;;;;;;;;;;;28.41;48.35;101017.94;5097432;28;19924;-76
2022/08/04 00:31:21;;;;;;;;;;;;;;;28.42;48.30;101025.06;5096510;28;19920;-76
2022/08/04 00:34:11;;;;;;;;;;;;;;;28.43;48.36;101023.19;5096147;28;19920;-76
2022/08/04 00:36:39;;;;;;;;;;;;;;;28.42;48.46;101016.91;5096916;28;20271;-76
2022/08/04 00:39:10;;;;;;;;;;;;;;;28.41;48.39;101020.66;5096661;28;19931;-76
2022/08/04 00:41:37;;;;;;;;;;;;;;;28.42;48.27;101022.34;5095299;28;19920;-76
2022/08/04 00:44:41;;;;;;;;;;;;;;;28.41;48.49;101037.00;5096556;28;19924;-76
2022/08/04 00:47:11;;;;;;;;;;;;;;;28.42;48.76;101026.94;5094896;28;19920;-76
2022/08/04 00:49:47;;;;;;;;;;;;;;;28.42;48.42;101027.78;5097053;28;19927;-76
2022/08/04 00:52:14;;;;;;;;;;;;;;;28.42;48.72;101019.63;5094968;28;19920;-76
2022/08/04 00:54:59;;;;;;;;;;;;;;;28.43;48.59;101031.34;5096508;28;19927;-76
2022/08/04 00:57:34;;;;;;;;;;;;;;;28.42;48.70;101033.22;5095747;28;19927;-76
2022/08/04 01:00:14;;;;;;;;;;;;;;;28.44;48.42;101030.31;5096577;28;19927;-76
2022/08/04 01:02:44;;;;;;;;;;;;;;;28.42;48.42;101033.22;5096528;28;19927;-76
2022/08/04 01:05:24;;;;;;;;;;;;;;;28.42;48.72;101025.06;5095813;28;20394;-76
2022/08/04 01:07:54;;;;;;;;;;;;;;;28.44;48.63;101027.59;5096419;28;20260;-76
2022/08/04 01:10:21;;;;;;;;;;;;;;;28.43;48.62;101029.47;5094992;28;19920;-76
2022/08/04 01:13:07;;;;;;;;;;;;;;;28.43;48.33;101029.47;5095717;28;19920;-76
2022/08/04 01:15:45;;;;;;;;;;;;;;;28.43;48.37;101023.19;5095913;28;19927;-76
2022/08/04 01:18:26;;;;;;;;;;;;;;;28.42;48.29;101019.63;5096497;28;19928;-76
2022/08/04 01:21:12;;;;;;;;;;;;;;;28.43;48.48;101023.19;5096381;28;19947;-77
2022/08/04 01:23:39;;;;;;;;;;;;;;;28.43;48.37;101029.47;5096415;28;19920;-76
2022/08/04 01:26:18;;;;;;;;;;;;;;;28.43;48.67;101026.75;5095327;28;19919;-76
2022/08/04 01:29:08;;;;;;;;;;;;;;;28.43;48.36;101018.56;5095951;28;19924;-77
2022/08/04 01:31:35;;;;;;;;;;;;;;;28.44;48.29;101017.56;5095303;28;19927;-76
2022/08/04 01:34:04;;;;;;;;;;;;;;;28.42;48.35;101014.16;5095306;28;19920;-76
2022/08/04 01:36:34;;;;;;;;;;;;;;;28.43;48.28;101021.31;5095472;28;19920;-76
2022/08/04 01:39:39;;;;;;;;;;;;;;;28.44;48.73;101019.41;5095121;28;19920;-76
2022/08/04 01:41:51;;;;;;;;;;;;;;;28.44;48.30;101025.75;5095620;28;19920;-76
2022/08/04 01:44:26;;;;;;;;;;;;;;;28.44;48.57;101020.28;5095702;28;19924;-76
2022/08/04 01:46:53;;;;;;;;;;;;;;;28.44;48.35;101023.00;5095011;28;19927;-76
2022/08/04 01:49:23;;;;;;;;;;;;;;;28.44;48.33;101019.41;5093668;28;19920;-76
2022/08/04 01:51:51;;;;;;;;;;;;;;;28.43;48.40;101018.56;5094940;28;19943;-76
2022/08/04 01:54:18;;;;;;;;;;;;;;;28.44;48.43;101019.41;5094866;28;19920;-77
2022/08/04 01:56:46;;;;;;;;;;;;;;;28.44;48.48;101019.41;5094602;28;19920;-77
2022/08/04 01:59:14;;;;;;;;;;;;;;;28.44;48.33;101019.41;5094818;28;19942;-76
2022/08/04 02:01:41;;;;;;;;;;;;;;;28.45;48.28;101021.13;5093493;28;19920;-76
2022/08/04 02:04:18;;;;;;;;;;;;;;;28.45;48.33;101026.59;5094758;28;20364;-76
2022/08/04 02:07:02;;;;;;;;;;;;;;;28.44;48.62;101027.59;5095238;28;19920;-76
2022/08/04 02:09:45;;;;;;;;;;;;;;;28.44;48.28;101025.75;5094647;28;19920;-76
2022/08/04 02:12:26;;;;;;;;;;;;;;;28.45;48.36;101021.13;5095279;28;20283;-76
2022/08/04 02:15:09;;;;;;;;;;;;;;;28.45;48.72;101024.69;5095415;28;19927;-76
2022/08/04 02:17:49;;;;;;;;;;;;;;;28.45;48.47;101032.88;5094789;28;19920;-76
2022/08/04 02:20:22;;;;;;;;;;;;;;;28.45;48.32;101032.88;5095109;28;19945;-76
2022/08/04 02:23:00;;;;;;;;;;;;;;;28.45;48.37;101026.59;5094348;28;19943;-76
2022/08/04 02:25:31;;;;;;;;;;;;;;;28.46;48.33;101031.00;5094691;28;19920;-77
2022/08/04 02:28:07;;;;;;;;;;;;;;;28.45;48.70;101027.41;5093403;28;19920;-76
2022/08/04 02:30:56;;;;;;;;;;;;;;;28.45;48.38;101027.41;5094350;28;19924;-76
2022/08/04 02:33:31;;;;;;;;;;;;;;;28.46;48.52;101022.81;5094940;28;19924;-76
2022/08/04 02:36:00;;;;;;;;;;;;;;;28.46;48.23;101022.81;5094515;28;19927;-76
2022/08/04 02:38:37;;;;;;;;;;;;;;;28.45;48.34;101027.41;5094126;28;19927;-76
2022/08/04 02:41:06;;;;;;;;;;;;;;;28.45;48.34;101027.41;5092898;28;19939;-76
2022/08/04 02:43:34;;;;;;;;;;;;;;;28.45;48.56;101027.41;5094150;28;19920;-76
2022/08/04 02:46:19;;;;;;;;;;;;;;;28.46;48.29;101028.25;5094735;28;19920;-77
2022/08/04 02:48:47;;;;;;;;;;;;;;;28.45;48.60;101021.13;5093480;28;19920;-76
2022/08/04 02:51:15;;;;;;;;;;;;;;;28.45;48.62;101019.25;5094402;28;19931;-77
2022/08/04 02:53:44;;;;;;;;;;;;;;;28.46;48.32;101028.25;5094613;28;20283;-77
2022/08/04 02:56:17;;;;;;;;;;;;;;;28.46;48.38;101028.25;5093718;28;19927;-76
2022/08/04 02:58:45;;;;;;;;;;;;;;;28.46;48.55;101022.81;5094615;28;19924;-76
2022/08/04 03:01:12;;;;;;;;;;;;;;;28.46;48.62;101020.09;5093928;28;19932;-76
2022/08/04 03:04:11;;;;;;;;;;;;;;;28.46;48.71;101022.81;5093616;28;19944;-77
2022/08/04 03:07:02;;;;;;;;;;;;;;;28.46;48.33;101020.94;5092785;28;19928;-77
2022/08/04 03:09:47;;;;;;;;;;;;;;;28.46;48.40;101022.81;5093907;28;20287;-77
2022/08/04 03:12:33;;;;;;;;;;;;;;;28.45;48.36;101021.97;5094755;28;19923;-76
2022/08/04 03:15:16;;;;;;;;;;;;;;;28.46;48.38;101022.81;5094390;28;20383;-77
2022/08/04 03:17:46;;;;;;;;;;;;;;;28.46;48.38;101015.50;5094388;28;19927;-76
2022/08/04 03:20:36;;;;;;;;;;;;;;;28.47;48.41;101019.06;5094373;28;20287;-77
2022/08/04 03:23:23;;;;;;;;;;;;;;;28.46;48.44;101023.66;5094086;28;19920;-76
2022/08/04 03:26:12;;;;;;;;;;;;;;;28.46;48.29;101020.94;5094346;28;19920;-77
2022/08/04 03:28:41;;;;;;;;;;;;;;;28.46;48.33;101018.22;5094343;28;20408;-76
2022/08/04 03:31:27;;;;;;;;;;;;;;;28.45;48.55;101019.25;5092576;28;19920;-76
2022/08/04 03:34:02;;;;;;;;;;;;;;;28.46;48.41;101023.66;5095834;28;19938;-76
2022/08/04 03:36:32;;;;;;;;;;;;;;;28.46;48.32;101018.22;5097460;28;19943;-76
2022/08/04 03:39:02;;;;;;;;;;;;;;;28.47;48.33;101024.50;5097526;28;19920;-76
2022/08/04 03:42:00;;;;;;;;;;;;;;;28.46;48.33;101015.50;5098338;28;19920;-76
2022/08/04 03:44:49;;;;;;;;;;;;;;;28.46;48.59;101020.94;5097551;28;19920;-77
2022/08/04 03:47:27;;;;;;;;;;;;;;;28.46;48.59;101018.22;5097395;28;20287;-77
2022/08/04 03:50:13;;;;;;;;;;;;;;;28.45;48.70;101021.97;5097552;28;19920;-77
2022/08/04 03:53:10;;;;;;;;;;;;;;;28.46;48.72;101020.94;5097559;28;19920;-77
2022/08/04 03:55:40;;;;;;;;;;;;;;;28.47;48.53;101021.78;5097559;28;19927;-77
2022/08/04 03:58:30;;;;;;;;;;;;;;;28.46;48.71;101020.94;5096966;28;19924;-77
2022/08/04 04:01:06;;;;;;;;;;;;;;;28.47;48.30;101024.50;5097718;28;20394;-77
2022/08/04 04:03:55;;;;;;;;;;;;;;;28.46;48.41;101020.94;5097469;28;19927;-76
2022/08/04 04:06:40;;;;;;;;;;;;;;;28.47;48.36;101025.34;5097277;28;20291;-77
2022/08/04 04:09:29;;;;;;;;;;;;;;;28.46;48.41;101026.38;5096097;28;19927;-77
2022/08/04 04:12:35;;;;;;;;;;;;;;;28.47;48.53;101027.22;5097182;28;19920;-76
2022/08/04 04:15:02;;;;;;;;;;;;;;;28.46;48.43;101023.66;5097430;28;19920;-76
2022/08/04 04:17:29;;;;;;;;;;;;;;;28.47;48.50;101032.66;5096725;28;19928;-77
2022/08/04 04:20:07;;;;;;;;;;;;;;;28.47;48.44;101024.50;5096667;28;20402;-76
2022/08/04 04:22:52;;;;;;;;;;;;;;;28.46;48.42;101029.09;5097594;28;19920;-76
2022/08/04 04:25:41;;;;;;;;;;;;;;;28.47;48.49;101032.66;5097506;28;19920;-77
2022/08/04 04:28:14;;;;;;;;;;;;;;;28.46;48.50;101026.38;5097480;28;19919;-77
2022/08/04 04:31:19;;;;;;;;;;;;;;;28.47;48.59;101038.13;5097441;28;19919;-77
2022/08/04 04:33:55;;;;;;;;;;;;;;;28.47;48.35;101038.97;5095454;28;19927;-77
2022/08/04 04:36:22;;;;;;;;;;;;;;;28.47;48.79;101046.28;5096473;28;19920;-76
2022/08/04 04:38:53;;;;;;;;;;;;;;;28.47;48.59;101036.22;5095163;28;20291;-77
2022/08/04 04:41:29;;;;;;;;;;;;;;;28.47;48.58;101046.28;5096581;28;19942;-76
2022/08/04 04:44:14;;;;;;;;;;;;;;;28.47;48.62;101049.00;5096508;28;20291;-76
2022/08/04 04:46:41;;;;;;;;;;;;;;;28.47;48.55;101051.72;5094942;28;20295;-77
2022/08/04 04:49:08;;;;;;;;;;;;;;;28.47;48.89;101044.41;5096246;28;19920;-76
2022/08/04 04:51:56;;;;;;;;;;;;;;;28.47;48.63;101047.13;5095027;28;19924;-76
2022/08/04 04:54:37;;;;;;;;;;;;;;;28.47;48.62;101052.56;5097004;28;19927;-76
2022/08/04 04:57:13;;;;;;;;;;;;;;;28.47;48.85;101055.28;5095075;28;19927;-76
2022/08/04 04:59:49;;;;;;;;;;;;;;;28.47;48.89;101047.13;5079136;28;19920;-76
2022/08/04 05:02:18;;;;;;;;;;;;;;;28.47;48.62;101052.56;5095784;28;20397;-76
2022/08/04 05:04:45;;;;;;;;;;;;;;;28.47;48.58;101043.56;5095276;28;19923;-76
2022/08/04 05:07:49;;;;;;;;;;;;;;;28.47;48.52;101046.28;5088607;28;19931;-76
2022/08/04 05:10:22;;;;;;;;;;;;;;;28.46;48.81;101056.34;5095807;28;19931;-76
2022/08/04 05:13:07;;;;;;;;;;;;;;;28.48;48.70;101053.41;5095969;28;20264;-76
2022/08/04 05:15:58;;;;;;;;;;;;;;;28.47;48.61;101049.00;5095589;28;19927;-76
2022/08/04 05:18:26;;;;;;;;;;;;;;;28.47;48.51;101051.72;5094603;28;19931;-76
2022/08/04 05:21:26;;;;;;;;;;;;;;;28.47;48.55;101057.19;5095863;28;19920;-76
2022/08/04 05:23:55;;;;;;;;;;;;;;;28.47;48.52;101051.72;5073349;28;19920;-76
2022/08/04 05:26:24;;;;;;;;;;;;;;;28.47;48.45;101052.56;5073366;28;20383;-76
2022/08/04 05:28:54;;;;;;;;;;;;;;;28.47;48.55;101052.56;5073129;28;20335;-76
2022/08/04 05:31:27;;;;;;;;;;;;;;;28.47;48.45;101047.13;5056335;28;19920;-76
2022/08/04 05:34:20;;;;;;;;;;;;;;;28.48;48.46;101053.41;5056114;28;19920;-77
2022/08/04 05:36:49;;;;;;;;;;;;;;;28.48;48.77;101058.88;5070366;28;19921;-76
2022/08/04 05:39:30;;;;;;;;;;;;;;;28.48;48.80;101053.41;5072842;28;19924;-76
2022/08/04 05:42:01;;;;;;;;;;;;;;;28.48;48.50;101047.97;5089060;28;20292;-76
2022/08/04 05:44:32;;;;;;;;;;;;;;;28.47;48.42;101044.41;5056792;28;19920;-76
2022/08/04 05:46:59;;;;;;;;;;;;;;;28.47;48.74;101054.47;5072764;28;19920;-76
2022/08/04 05:49:27;;;;;;;;;;;;;;;28.47;48.53;101058.03;5072688;28;19936;-76
2022/08/04 05:51:55;;;;;;;;;;;;;;;28.47;48.49;101055.28;5056635;28;19927;-76
2022/08/04 05:54:23;;;;;;;;;;;;;;;28.47;48.40;101057.19;5072918;28;19927;-77
2022/08/04 05:56:52;;;;;;;;;;;;;;;28.47;48.43;101060.75;5072319;28;19920;-77
2022/08/04 05:59:20;;;;;;;;;;;;;;;28.48;48.53;101053.41;5081737;28;19921;-76
2022/08/04 06:01:47;;;;;;;;;;;;;;;28.47;48.41;101060.75;5093608;28;19927;-77
2022/08/04 06:04:30;;;;;;;;;;;;;;;28.48;48.72;101053.41;5095126;28;19920;-76
2022/08/04 06:06:57;;;;;;;;;;;;;;;28.47;48.46;101058.03;5095488;28;19927;-76
2022/08/04 06:09:24;;;;;;;;;;;;;;;28.47;48.48;101052.56;5094604;28;19927;-77
2022/08/04 06:11:52;;;;;;;;;;;;;;;28.47;48.46;101051.72;5094507;28;20290;-76
2022/08/04 06:14:41;;;;;;;;;;;;;;;28.48;48.47;101050.69;5094913;28;19927;-76
2022/08/04 06:17:10;;;;;;;;;;;;;;;28.48;48.53;101058.88;5095162;28;20036;-76
2022/08/04 06:19:59;;;;;;;;;;;;;;;28.48;48.78;101061.59;5095315;28;20363;-76
2022/08/04 06:22:49;;;;;;;;;;;;;;;28.48;48.36;101056.13;5094768;28;19931;-76
2022/08/04 06:25:19;;;;;;;;;;;;;;;28.48;48.76;101057.00;5094428;28;20048;-77
2022/08/04 06:27:47;;;;;;;;;;;;;;;28.48;48.47;101051.56;5095235;28;20432;-76
2022/08/04 06:30:15;;;;;;;;;;;;;;;28.49;48.42;101058.69;5094242;28;19920;-76
2022/08/04 06:35:36;;;;;;;;;;;;;;;28.48;48.46;101058.88;5072416;28;19943;-76
2022/08/04 06:38:03;;;;;;;;;;;;;;;28.48;48.67;101059.75;5072119;28;19927;-76
2022/08/04 06:40:31;;;;;;;;;;;;;;;28.48;48.79;101056.13;5072140;28;19931;-77
2022/08/04 06:43:01;;;;;;;;;;;;;;;28.48;48.66;101053.41;5055023;28;19920;-76
2022/08/04 06:45:30;;;;;;;;;;;;;;;28.48;48.77;101065.19;5071785;28;19928;-76
2022/08/04 06:47:57;;;;;;;;;;;;;;;28.48;48.42;101059.75;5072462;28;20439;-77
2022/08/04 06:50:25;;;;;;;;;;;;;;;28.48;48.34;101050.69;5072426;28;20312;-77
2022/08/04 06:53:12;;;;;;;;;;;;;;;28.49;48.42;101055.13;5072402;28;20423;-77
2022/08/04 06:55:40;;;;;;;;;;;;;;;28.48;48.72;101053.41;5055284;28;19920;-76
2022/08/04 06:58:08;;;;;;;;;;;;;;;28.50;48.42;101057.66;5071417;28;19939;-76
2022/08/04 07:00:36;;;;;;;;;;;;;;;28.48;48.31;101051.56;5072542;28;19921;-77
2022/08/04 07:03:04;;;;;;;;;;;;;;;28.49;48.34;101055.13;5072621;28;20416;-77
2022/08/04 07:05:31;;;;;;;;;;;;;;;28.48;48.34;101048.84;5071562;28;19920;-77
2022/08/04 07:07:59;;;;;;;;;;;;;;;28.49;48.32;101053.25;5072566;28;20075;-77
2022/08/04 07:10:26;;;;;;;;;;;;;;;28.49;48.58;101052.41;5076363;28;19924;-77
2022/08/04 07:12:55;;;;;;;;;;;;;;;28.49;48.76;101050.53;5090150;28;19927;-77
2022/08/04 07:15:23;;;;;;;;;;;;;;;28.49;48.49;101046.97;5097977;28;20394;-77
2022/08/04 07:17:51;;;;;;;;;;;;;;;28.48;48.71;101054.28;5098750;28;19919;-77
2022/08/04 07:20:19;;;;;;;;;;;;;;;28.49;48.43;101044.22;5098172;28;19927;-77
2022/08/04 07:23:05;;;;;;;;;;;;;;;28.49;48.32;101044.22;5098439;28;19927;-77
2022/08/04 07:25:33;;;;;;;;;;;;;;;28.49;48.50;101055.97;5098492;28;19943;-77
2022/08/04 07:28:21;;;;;;;;;;;;;;;28.49;48.51;101050.53;5097747;28;19920;-77
2022/08/04 07:30:48;;;;;;;;;;;;;;;28.49;48.32;101042.34;5098236;28;19927;-77
2022/08/04 07:33:16;;;;;;;;;;;;;;;28.49;48.58;101041.50;5097642;28;19920;-77
2022/08/04 07:35:44;;;;;;;;;;;;;;;28.50;48.34;101045.91;5098162;28;19927;-76
2022/08/04 07:38:32;;;;;;;;;;;;;;;28.49;48.57;101047.81;5125699;27;19920;-76
2022/08/04 07:41:00;;;;;;;;;;;;;;;28.49;48.55;101045.06;5097682;28;19920;-77
2022/08/04 07:43:27;;;;;;;;;;;;;;;28.49;48.39;101045.06;5097350;28;19946;-76
2022/08/04 07:45:54;;;;;;;;;;;;;;;28.50;48.70;101048.63;5097600;28;19920;-76
2022/08/04 07:48:23;;;;;;;;;;;;;;;28.50;48.34;101040.47;5098280;28;19920;-76
2022/08/04 07:50:50;;;;;;;;;;;;;;;28.49;48.38;101050.53;5096194;28;19920;-76
2022/08/04 07:53:17;;;;;;;;;;;;;;;28.50;48.33;101049.47;5097856;28;19924;-76
2022/08/04 07:56:05;;;;;;;;;;;;;;;28.50;48.63;101041.31;5097023;28;19920;-76
2022/08/04 07:58:32;;;;;;;;;;;;;;;28.50;48.36;101052.22;5096274;28;19920;-76
2022/08/04 08:00:59;;;;;;;;;;;;;;;28.50;48.38;101046.75;5095805;28;19920;-77
2022/08/04 08:03:26;;;;;;;;;;;;;;;28.51;48.36;101045.72;5097697;28;19920;-76
2022/08/04 08:05:54;;;;;;;;;;;;;;;28.50;48.47;101038.59;5097506;28;19920;-77
2022/08/04 08:08:41;;;;;;;;;;;;;;;28.51;48.73;101039.44;5096626;28;19920;-76
2022/08/04 08:11:09;;;;;;;;;;;;;;;28.51;48.36;101036.72;5096819;28;19924;-77
2022/08/04 08:13:36;;;;;;;;;;;;;;;28.51;48.33;101040.28;5078807;28;19920;-77
2022/08/04 08:16:04;;;;;;;;;;;;;;;28.51;48.39;101037.53;5097145;28;19927;-77
2022/08/04 08:18:31;;;;;;;;;;;;;;;28.51;48.36;101034.81;5097369;28;19927;-77
2022/08/04 08:20:58;;;;;;;;;;;;;;;28.52;48.38;101027.50;5096974;28;19947;-77
2022/08/04 08:23:29;;;;;;;;;;;;;;;28.51;48.32;101026.66;5096705;28;19927;-77
2022/08/04 08:25:56;;;;;;;;;;;;;;;28.52;48.56;101028.38;5096727;28;19950;-77
2022/08/04 08:28:24;;;;;;;;;;;;;;;28.53;48.30;101034.66;5095784;28;20279;-76
2022/08/04 08:30:51;;;;;;;;;;;;;;;28.52;48.29;101031.09;5096240;28;19920;-76
2022/08/04 08:33:19;;;;;;;;;;;;;;;28.52;48.30;101028.38;5097048;28;19923;-77
2022/08/04 08:35:46;;;;;;;;;;;;;;;28.53;48.62;101034.66;5095331;28;19920;-77
2022/08/04 08:38:26;;;;;;;;;;;;;;;28.53;48.35;101027.31;5096583;28;20279;-77
2022/08/04 08:40:57;;;;;;;;;;;;;;;28.52;48.47;101031.09;5096332;28;19920;-76
2022/08/04 08:43:24;;;;;;;;;;;;;;;28.53;48.25;101030.06;5096952;28;19927;-77
2022/08/04 08:46:14;;;;;;;;;;;;;;;28.54;48.55;101025.44;5095831;28;19920;-76
2022/08/04 08:48:53;;;;;;;;;;;;;;;28.53;48.34;101018.31;5096755;28;19943;-77
2022/08/04 08:51:34;;;;;;;;;;;;;;;28.53;48.36;101030.06;5096508;28;19927;-77
2022/08/04 08:54:11;;;;;;;;;;;;;;;28.53;48.57;101023.75;5095022;28;20367;-76
2022/08/04 08:56:45;;;;;;;;;;;;;;;28.53;48.33;101019.16;5096154;28;19920;-76
2022/08/04 08:59:51;;;;;;;;;;;;;;;28.53;48.29;101023.75;5095968;28;19920;-76
2022/08/04 09:02:18;;;;;;;;;;;;;;;28.55;48.40;101027.13;5057129;28;19921;-76
2022/08/04 09:05:11;;;;;;;;;;;;;;;28.55;48.28;101025.25;5073671;28;19947;-77
2022/08/04 09:07:47;;;;;;;;;;;;;;;28.55;48.34;101027.97;5013762;28;20300;-77
2022/08/04 09:10:17;;;;;;;;;;;;;;;28.56;48.55;101023.34;5013761;28;19921;-77
2022/08/04 09:13:00;;;;;;;;;;;;;;;28.55;48.26;101024.41;5014504;28;19922;-77
2022/08/04 09:15:38;;;;;;;;;;;;;;;28.55;48.20;101025.25;5014279;28;19926;-77
2022/08/04 09:18:17;;;;;;;;;;;;;;;28.57;48.49;101019.63;5013953;28;19922;-77
2022/08/04 09:20:46;;;;;;;;;;;;;;;28.56;48.07;101018.78;5013766;28;19921;-77
2022/08/04 09:23:13;;;;;;;;;;;;;;;28.55;48.15;101019.78;5013468;28;19944;-77
2022/08/04 09:25:50;;;;;;;;;;;;;;;28.55;48.56;101010.78;5014007;28;19928;-76
2022/08/04 09:28:24;;;;;;;;;;;;;;;28.56;48.27;101017.91;5030630;28;20373;-77
2022/08/04 09:31:14;;;;;;;;;;;;;;;28.56;48.18;101012.47;5013352;28;20022;-77
2022/08/04 09:33:46;;;;;;;;;;;;;;;28.56;48.13;101017.91;5042111;28;20296;-77
2022/08/04 09:36:17;;;;;;;;;;;;;;;28.57;48.21;101016.91;5053596;28;19924;-77
2022/08/04 09:39:10;;;;;;;;;;;;;;;28.57;48.24;101014.19;5037417;28;20331;-76
2022/08/04 09:41:43;;;;;;;;;;;;;;;28.57;48.09;101006.84;5053543;28;19921;-77
2022/08/04 09:44:28;;;;;;;;;;;;;;;28.57;48.35;101003.28;5089775;27;19920;-76
2022/08/04 09:47:18;;;;;;;;;;;;;;;28.57;48.42;101006.84;5095275;28;19927;-76
2022/08/04 09:49:57;;;;;;;;;;;;;;;28.58;48.16;101010.41;5095924;28;19920;-76
2022/08/04 09:52:43;;;;;;;;;;;;;;;28.57;48.17;101004.13;5095263;28;19920;-76
2022/08/04 09:55:23;;;;;;;;;;;;;;;28.57;48.17;101001.41;5095852;28;19927;-77
2022/08/04 09:57:50;;;;;;;;;;;;;;;28.59;48.38;101012.09;5094822;28;19920;-77
2022/08/04 10:00:19;;;;;;;;;;;;;;;28.58;48.33;101003.09;5093668;28;19929;-77
2022/08/04 10:03:09;;;;;;;;;;;;;;;28.58;48.09;100994.06;5094820;28;19920;-77
2022/08/04 10:05:48;;;;;;;;;;;;;;;28.58;48.20;100989.47;5095632;28;19924;-77
2022/08/04 10:08:16;;;;;;;;;;;;;;;28.59;48.13;100984.84;5094772;28;19927;-77
2022/08/04 10:11:02;;;;;;;;;;;;;;;28.58;48.15;100994.91;5093666;28;19920;-77
2022/08/04 10:13:41;;;;;;;;;;;;;;;28.59;48.45;100985.69;5095212;28;19924;-77
2022/08/04 10:16:14;;;;;;;;;;;;;;;28.59;48.36;100980.25;5094332;28;20363;-77
2022/08/04 10:18:49;;;;;;;;;;;;;;;28.58;48.17;100978.56;5095158;28;20364;-76
2022/08/04 10:21:23;;;;;;;;;;;;;;;28.59;48.33;100982.97;5093330;28;19920;-77
2022/08/04 10:24:08;;;;;;;;;;;;;;;28.60;48.16;100975.66;5095025;28;19946;-77
2022/08/04 10:26:44;;;;;;;;;;;;;;;28.59;48.07;100968.50;5094450;28;20383;-77
2022/08/04 10:29:13;;;;;;;;;;;;;;;28.59;48.14;100969.34;5093102;28;19943;-77
2022/08/04 10:31:48;;;;;;;;;;;;;;;28.61;48.14;100971.06;5095182;28;19924;-77
2022/08/04 10:34:20;;;;;;;;;;;;;;;28.61;48.43;100971.91;5094629;28;19920;-76
2022/08/04 10:36:47;;;;;;;;;;;;;;;28.61;48.38;100965.63;5093081;28;19920;-77
2022/08/04 10:39:17;;;;;;;;;;;;;;;28.61;48.30;100971.91;5094428;28;19920;-76
2022/08/04 10:42:18;;;;;;;;;;;;;;;28.61;48.24;100971.06;5094280;28;19920;-77
2022/08/04 10:44:48;;;;;;;;;;;;;;;28.61;48.09;100963.75;5094335;28;19920;-77
2022/08/04 10:47:21;;;;;;;;;;;;;;;28.62;48.01;100959.13;5095054;28;19927;-77
2022/08/04 10:49:55;;;;;;;;;;;;;;;28.62;48.23;100959.13;5094639;28;19920;-77
2022/08/04 10:52:42;;;;;;;;;;;;;;;28.62;48.15;100956.41;5094708;28;20275;-77
2022/08/04 10:55:09;;;;;;;;;;;;;;;28.63;48.47;100952.63;5093870;28;20368;-77
2022/08/04 10:57:45;;;;;;;;;;;;;;;28.62;48.15;100953.69;5092986;28;19920;-77
2022/08/04 11:00:18;;;;;;;;;;;;;;;28.61;48.14;100950.13;5093950;28;20367;-76
2022/08/04 11:02:51;;;;;;;;;;;;;;;28.62;48.11;100946.34;5094866;28;19920;-76
2022/08/04 11:05:34;;;;;;;;;;;;;;;28.62;48.40;100948.22;5093892;28;19927;-76
2022/08/04 11:08:13;;;;;;;;;;;;;;;28.63;48.10;100947.19;5093179;28;19920;-77
2022/08/04 11:10:50;;;;;;;;;;;;;;;28.63;48.15;100939.00;5094811;28;19920;-77
2022/08/04 11:13:17;;;;;;;;;;;;;;;28.63;48.09;100941.75;5094225;28;19920;-77
2022/08/04 11:15:59;;;;;;;;;;;;;;;28.62;48.11;100935.44;5094447;28;19927;-77
2022/08/04 11:18:30;;;;;;;;;;;;;;;28.63;48.31;100947.19;5094603;28;20249;-77
2022/08/04 11:20:57;;;;;;;;;;;;;;;28.63;48.14;100936.28;5093672;28;20287;-77
2022/08/04 11:23:27;;;;;;;;;;;;;;;28.63;48.14;100939.00;5094355;28;19920;-77
2022/08/04 11:26:00;;;;;;;;;;;;;;;28.63;48.32;100931.69;5094050;28;19920;-76
2022/08/04 11:28:36;;;;;;;;;;;;;;;28.64;48.22;100935.25;5092821;28;19920;-76
2022/08/04 11:31:04;;;;;;;;;;;;;;;28.63;48.02;100930.84;5094068;28;19920;-76
2022/08/04 11:33:50;;;;;;;;;;;;;;;28.63;48.13;100931.69;5093530;28;19947;-76
2022/08/04 11:36:17;;;;;;;;;;;;;;;28.63;47.96;100931.69;5092723;28;19920;-76
2022/08/04 11:39:03;;;;;;;;;;;;;;;28.63;48.14;100926.25;5094213;28;19920;-76
2022/08/04 11:41:44;;;;;;;;;;;;;;;28.64;47.89;100927.06;5093837;28;19920;-76
2022/08/04 11:44:43;;;;;;;;;;;;;;;28.64;47.95;100921.63;5092658;28;19927;-76
2022/08/04 11:47:19;;;;;;;;;;;;;;;28.64;47.88;100910.72;5090618;28;19927;-76
2022/08/04 11:49:51;;;;;;;;;;;;;;;28.65;47.85;100915.16;5075839;28;19920;-77
2022/08/04 11:52:25;;;;;;;;;;;;;;;28.65;47.85;100912.44;5094090;28;19924;-76
2022/08/04 11:54:53;;;;;;;;;;;;;;;28.64;47.84;100908.00;5095799;28;19928;-76
2022/08/04 11:57:21;;;;;;;;;;;;;;;28.65;48.06;100912.44;5097047;28;19920;-76
2022/08/04 12:00:04;;;;;;;;;;;;;;;28.65;48.21;100910.56;5097747;28;19920;-76
2022/08/04 12:02:52;;;;;;;;;;;;;;;28.65;47.98;100913.28;5097455;28;19920;-76
2022/08/04 12:05:24;;;;;;;;;;;;;;;28.65;47.89;100910.56;5097590;28;19927;-77
2022/08/04 12:08:09;;;;;;;;;;;;;;;28.65;47.86;100915.16;5097638;28;19920;-77
2022/08/04 12:10:48;;;;;;;;;;;;;;;28.65;47.83;100904.28;5097288;28;19920;-76
2022/08/04 12:13:39;;;;;;;;;;;;;;;28.65;47.93;100910.56;5079187;28;19920;-76
2022/08/04 12:16:15;;;;;;;;;;;;;;;28.65;47.81;100907.00;5097441;28;19919;-76
2022/08/04 12:19:00;;;;;;;;;;;;;;;28.65;47.88;100896.94;5096830;28;20394;-77
2022/08/04 12:21:35;;;;;;;;;;;;;;;28.66;47.76;100900.50;5097022;28;19986;-77
2022/08/04 12:24:15;;;;;;;;;;;;;;;28.66;47.89;100895.91;5095812;28;20299;-76
2022/08/04 12:26:48;;;;;;;;;;;;;;;28.66;47.82;100892.34;5097302;28;19924;-77
2022/08/04 12:29:17;;;;;;;;;;;;;;;28.66;48.04;100893.19;5096892;28;19927;-77
2022/08/04 12:31:47;;;;;;;;;;;;;;;28.66;47.91;100886.88;5096944;28;19927;-76
2022/08/04 12:34:17;;;;;;;;;;;;;;;28.66;47.99;100897.78;5097373;28;19920;-76
2022/08/04 12:36:44;;;;;;;;;;;;;;;28.66;47.74;100893.19;5097318;28;19920;-76
2022/08/04 12:39:14;;;;;;;;;;;;;;;28.67;47.62;100896.75;5097271;28;19920;-77
2022/08/04 12:41:51;;;;;;;;;;;;;;;28.66;47.93;100890.44;5097149;28;19928;-77
2022/08/04 12:44:19;;;;;;;;;;;;;;;28.66;47.62;100884.16;5096466;28;19920;-77
2022/08/04 12:47:06;;;;;;;;;;;;;;;28.66;47.58;100885.00;5096379;28;19919;-77
2022/08/04 12:49:55;;;;;;;;;;;;;;;28.66;47.71;100882.28;5096798;28;19920;-76
2022/08/04 12:52:29;;;;;;;;;;;;;;;28.67;47.55;100883.13;5096527;28;19920;-77
2022/08/04 12:55:17;;;;;;;;;;;;;;;28.67;47.66;100883.13;5096049;28;19927;-77
2022/08/04 12:57:45;;;;;;;;;;;;;;;28.67;47.97;100878.50;5095974;28;19920;-77
2022/08/04 13:00:22;;;;;;;;;;;;;;;28.67;47.84;100872.22;5096230;28;19924;-77
2022/08/04 13:02:58;;;;;;;;;;;;;;;28.67;47.49;100872.22;5095434;28;20284;-77
2022/08/04 13:05:27;;;;;;;;;;;;;;;28.67;47.47;100872.22;5096489;28;19927;-77
2022/08/04 13:07:55;;;;;;;;;;;;;;;28.67;47.46;100864.88;5096704;28;19919;-77
2022/08/04 13:10:23;;;;;;;;;;;;;;;28.67;47.56;100862.16;5095121;28;19924;-77
2022/08/04 13:12:59;;;;;;;;;;;;;;;28.67;47.43;100859.44;5095406;28;19927;-77
2022/08/04 13:15:27;;;;;;;;;;;;;;;28.67;47.47;100858.59;5095543;28;19920;-77
2022/08/04 13:18:04;;;;;;;;;;;;;;;28.67;47.80;100864.88;5096070;28;19919;-77
2022/08/04 13:20:42;;;;;;;;;;;;;;;28.67;47.47;100862.16;5095833;28;19920;-77